sensor_id;sensor_type;location;lat;lon;timestamp;P1;durP1;ratioP1;P2;durP2;ratioP2
14143;SDS011;7152;48.348;10.980;2023-07-22T00:00:50;3.50;;;2.67;;
14143;SDS011;7152;48.348;10.980;2023-07-22T00:03:16;3.17;;;2.57;;
14143;SDS011;7152;48.348;10.980;2023-07-22T00:05:42;2.97;;;2.50;;
14143;SDS011;7152;48.348;10.980;2023-07-22T00:08:09;2.80;;;2.60;;
14143;SDS011;7152;48.348;10.980;2023-07-22T00:10:34;3.80;;;2.67;;
14143;SDS011;7152;48.348;10.980;2023-07-22T00:13:00;3.10;;;2.80;;
14143;SDS011;7152;48.348;10.980;2023-07-22T00:15:26;3.07;;;2.77;;
14143;SDS011;7152;48.348;10.980;2023-07-22T00:17:52;3.43;;;2.70;;
14143;SDS011;7152;48.348;10.980;2023-07-22T00:20:18;3.30;;;2.97;;
14143;SDS011;7152;48.348;10.980;2023-07-22T00:22:45;3.20;;;2.90;;
14143;SDS011;7152;48.348;10.980;2023-07-22T00:25:11;4.40;;;3.20;;
14143;SDS011;7152;48.348;10.980;2023-07-22T00:27:37;3.53;;;3.23;;
14143;SDS011;7152;48.348;10.980;2023-07-22T00:30:07;4.97;;;3.70;;
14143;SDS011;7152;48.348;10.980;2023-07-22T00:32:34;7.93;;;4.13;;
14143;SDS011;7152;48.348;10.980;2023-07-22T00:35:03;10.17;;;4.77;;
14143;SDS011;7152;48.348;10.980;2023-07-22T00:37:30;6.50;;;4.90;;
14143;SDS011;7152;48.348;10.980;2023-07-22T00:39:57;5.03;;;4.40;;
14143;SDS011;7152;48.348;10.980;2023-07-22T00:42:23;8.07;;;5.93;;
14143;SDS011;7152;48.348;10.980;2023-07-22T00:44:49;6.70;;;5.73;;
14143;SDS011;7152;48.348;10.980;2023-07-22T00:47:15;8.13;;;5.90;;
14143;SDS011;7152;48.348;10.980;2023-07-22T00:49:42;6.47;;;5.70;;
14143;SDS011;7152;48.348;10.980;2023-07-22T00:52:09;8.43;;;5.80;;
14143;SDS011;7152;48.348;10.980;2023-07-22T00:54:35;6.37;;;5.70;;
14143;SDS011;7152;48.348;10.980;2023-07-22T00:57:01;9.57;;;6.20;;
14143;SDS011;7152;48.348;10.980;2023-07-22T00:59:26;8.90;;;5.70;;
14143;SDS011;7152;48.348;10.980;2023-07-22T01:01:53;6.87;;;5.77;;
14143;SDS011;7152;48.348;10.980;2023-07-22T01:04:19;9.97;;;5.50;;
14143;SDS011;7152;48.348;10.980;2023-07-22T01:06:48;7.57;;;5.43;;
14143;SDS011;7152;48.348;10.980;2023-07-22T01:09:14;6.73;;;4.83;;
14143;SDS011;7152;48.348;10.980;2023-07-22T01:11:40;4.97;;;4.47;;
14143;SDS011;7152;48.348;10.980;2023-07-22T01:14:06;6.63;;;4.90;;
14143;SDS011;7152;48.348;10.980;2023-07-22T01:16:33;7.93;;;5.20;;
14143;SDS011;7152;48.348;10.980;2023-07-22T01:18:59;6.20;;;4.90;;
14143;SDS011;7152;48.348;10.980;2023-07-22T01:21:25;4.77;;;4.37;;
14143;SDS011;7152;48.348;10.980;2023-07-22T01:23:53;5.70;;;5.10;;
14143;SDS011;7152;48.348;10.980;2023-07-22T01:26:19;6.67;;;5.00;;
14143;SDS011;7152;48.348;10.980;2023-07-22T01:28:45;6.43;;;5.80;;
14143;SDS011;7152;48.348;10.980;2023-07-22T01:31:11;6.70;;;6.03;;
14143;SDS011;7152;48.348;10.980;2023-07-22T01:33:37;11.43;;;7.73;;
14143;SDS011;7152;48.348;10.980;2023-07-22T01:36:03;10.57;;;8.00;;
14143;SDS011;7152;48.348;10.980;2023-07-22T01:38:29;7.63;;;6.83;;
14143;SDS011;7152;48.348;10.980;2023-07-22T01:40:56;8.50;;;7.00;;
14143;SDS011;7152;48.348;10.980;2023-07-22T01:43:22;8.47;;;7.10;;
14143;SDS011;7152;48.348;10.980;2023-07-22T01:45:48;8.33;;;7.53;;
14143;SDS011;7152;48.348;10.980;2023-07-22T01:48:14;8.37;;;7.27;;
14143;SDS011;7152;48.348;10.980;2023-07-22T01:50:39;12.53;;;10.03;;
14143;SDS011;7152;48.348;10.980;2023-07-22T01:53:05;11.50;;;10.07;;
14143;SDS011;7152;48.348;10.980;2023-07-22T01:55:31;11.70;;;10.50;;
14143;SDS011;7152;48.348;10.980;2023-07-22T01:57:57;14.67;;;10.40;;
14143;SDS011;7152;48.348;10.980;2023-07-22T02:00:24;12.67;;;11.37;;
14143;SDS011;7152;48.348;10.980;2023-07-22T02:02:50;12.87;;;11.57;;
14143;SDS011;7152;48.348;10.980;2023-07-22T02:05:15;13.70;;;11.37;;
14143;SDS011;7152;48.348;10.980;2023-07-22T02:07:41;11.43;;;10.13;;
14143;SDS011;7152;48.348;10.980;2023-07-22T02:10:07;12.20;;;10.77;;
14143;SDS011;7152;48.348;10.980;2023-07-22T02:12:35;11.73;;;10.50;;
14143;SDS011;7152;48.348;10.980;2023-07-22T02:15:01;13.10;;;10.37;;
14143;SDS011;7152;48.348;10.980;2023-07-22T02:17:28;12.77;;;10.73;;
14143;SDS011;7152;48.348;10.980;2023-07-22T02:19:56;11.83;;;10.73;;
14143;SDS011;7152;48.348;10.980;2023-07-22T02:22:22;11.07;;;9.97;;
14143;SDS011;7152;48.348;10.980;2023-07-22T02:24:48;13.53;;;12.17;;
14143;SDS011;7152;48.348;10.980;2023-07-22T02:27:14;14.47;;;11.70;;
14143;SDS011;7152;48.348;10.980;2023-07-22T02:29:39;12.13;;;10.87;;
14143;SDS011;7152;48.348;10.980;2023-07-22T02:32:06;13.73;;;12.40;;
14143;SDS011;7152;48.348;10.980;2023-07-22T02:34:32;14.47;;;12.97;;
14143;SDS011;7152;48.348;10.980;2023-07-22T02:36:57;13.87;;;12.40;;
14143;SDS011;7152;48.348;10.980;2023-07-22T02:39:23;15.63;;;14.00;;
14143;SDS011;7152;48.348;10.980;2023-07-22T02:41:49;16.10;;;13.27;;
14143;SDS011;7152;48.348;10.980;2023-07-22T02:44:15;13.97;;;12.57;;
14143;SDS011;7152;48.348;10.980;2023-07-22T02:46:41;13.50;;;12.20;;
14143;SDS011;7152;48.348;10.980;2023-07-22T02:49:07;13.47;;;12.13;;
14143;SDS011;7152;48.348;10.980;2023-07-22T02:51:33;15.27;;;13.77;;
14143;SDS011;7152;48.348;10.980;2023-07-22T02:53:58;15.83;;;14.17;;
14143;SDS011;7152;48.348;10.980;2023-07-22T02:56:24;14.90;;;13.47;;
14143;SDS011;7152;48.348;10.980;2023-07-22T02:58:50;14.80;;;13.37;;
14143;SDS011;7152;48.348;10.980;2023-07-22T03:01:16;13.77;;;12.37;;
14143;SDS011;7152;48.348;10.980;2023-07-22T03:03:42;14.50;;;13.10;;
14143;SDS011;7152;48.348;10.980;2023-07-22T03:06:08;14.13;;;12.80;;
14143;SDS011;7152;48.348;10.980;2023-07-22T03:08:34;13.30;;;12.10;;
14143;SDS011;7152;48.348;10.980;2023-07-22T03:11:01;13.33;;;12.07;;
14143;SDS011;7152;48.348;10.980;2023-07-22T03:13:27;12.77;;;11.27;;
14143;SDS011;7152;48.348;10.980;2023-07-22T03:15:55;12.50;;;11.23;;
14143;SDS011;7152;48.348;10.980;2023-07-22T03:18:21;12.73;;;11.47;;
14143;SDS011;7152;48.348;10.980;2023-07-22T03:20:48;11.00;;;9.90;;
14143;SDS011;7152;48.348;10.980;2023-07-22T03:23:14;12.10;;;10.87;;
14143;SDS011;7152;48.348;10.980;2023-07-22T03:25:40;12.03;;;10.37;;
14143;SDS011;7152;48.348;10.980;2023-07-22T03:28:06;12.17;;;11.03;;
14143;SDS011;7152;48.348;10.980;2023-07-22T03:30:32;10.70;;;9.60;;
14143;SDS011;7152;48.348;10.980;2023-07-22T03:32:58;10.30;;;9.37;;
14143;SDS011;7152;48.348;10.980;2023-07-22T03:35:25;11.70;;;10.50;;
14143;SDS011;7152;48.348;10.980;2023-07-22T03:37:52;11.03;;;9.80;;
14143;SDS011;7152;48.348;10.980;2023-07-22T03:40:18;10.43;;;9.43;;
14143;SDS011;7152;48.348;10.980;2023-07-22T03:42:52;12.53;;;10.93;;
14143;SDS011;7152;48.348;10.980;2023-07-22T03:45:20;10.47;;;9.57;;
14143;SDS011;7152;48.348;10.980;2023-07-22T03:47:51;11.47;;;9.73;;
14143;SDS011;7152;48.348;10.980;2023-07-22T03:50:27;11.17;;;9.33;;
14143;SDS011;7152;48.348;10.980;2023-07-22T03:52:53;10.90;;;9.93;;
14143;SDS011;7152;48.348;10.980;2023-07-22T03:55:19;12.00;;;9.93;;
14143;SDS011;7152;48.348;10.980;2023-07-22T03:57:45;10.93;;;9.63;;
14143;SDS011;7152;48.348;10.980;2023-07-22T04:00:11;11.17;;;9.97;;
14143;SDS011;7152;48.348;10.980;2023-07-22T04:02:38;12.10;;;10.47;;
14143;SDS011;7152;48.348;10.980;2023-07-22T04:05:04;11.27;;;10.17;;
14143;SDS011;7152;48.348;10.980;2023-07-22T04:07:30;12.23;;;11.00;;
14143;SDS011;7152;48.348;10.980;2023-07-22T04:09:56;13.50;;;12.17;;
14143;SDS011;7152;48.348;10.980;2023-07-22T04:12:23;13.93;;;12.53;;
14143;SDS011;7152;48.348;10.980;2023-07-22T04:14:48;13.13;;;11.83;;
14143;SDS011;7152;48.348;10.980;2023-07-22T04:17:14;11.70;;;10.70;;
14143;SDS011;7152;48.348;10.980;2023-07-22T04:19:41;12.07;;;10.97;;
14143;SDS011;7152;48.348;10.980;2023-07-22T04:22:08;11.93;;;10.70;;
14143;SDS011;7152;48.348;10.980;2023-07-22T04:24:34;11.90;;;10.77;;
14143;SDS011;7152;48.348;10.980;2023-07-22T04:27:00;12.23;;;10.80;;
14143;SDS011;7152;48.348;10.980;2023-07-22T04:29:26;11.03;;;9.97;;
14143;SDS011;7152;48.348;10.980;2023-07-22T04:31:56;11.60;;;10.47;;
14143;SDS011;7152;48.348;10.980;2023-07-22T04:34:29;11.83;;;10.60;;
14143;SDS011;7152;48.348;10.980;2023-07-22T04:36:56;11.60;;;10.33;;
14143;SDS011;7152;48.348;10.980;2023-07-22T04:39:21;12.87;;;10.60;;
14143;SDS011;7152;48.348;10.980;2023-07-22T04:41:48;12.37;;;11.00;;
14143;SDS011;7152;48.348;10.980;2023-07-22T04:44:14;11.20;;;10.10;;
14143;SDS011;7152;48.348;10.980;2023-07-22T04:46:39;11.03;;;9.37;;
14143;SDS011;7152;48.348;10.980;2023-07-22T04:49:06;11.13;;;9.97;;
14143;SDS011;7152;48.348;10.980;2023-07-22T04:51:31;10.00;;;9.03;;
14143;SDS011;7152;48.348;10.980;2023-07-22T04:53:57;10.67;;;9.53;;
14143;SDS011;7152;48.348;10.980;2023-07-22T04:56:23;10.03;;;9.07;;
14143;SDS011;7152;48.348;10.980;2023-07-22T04:58:49;10.50;;;8.07;;
14143;SDS011;7152;48.348;10.980;2023-07-22T05:01:15;9.17;;;8.27;;
14143;SDS011;7152;48.348;10.980;2023-07-22T05:03:41;10.60;;;8.80;;
14143;SDS011;7152;48.348;10.980;2023-07-22T05:06:08;9.37;;;8.47;;
14143;SDS011;7152;48.348;10.980;2023-07-22T05:08:34;12.43;;;8.43;;
14143;SDS011;7152;48.348;10.980;2023-07-22T05:11:00;12.90;;;8.40;;
14143;SDS011;7152;48.348;10.980;2023-07-22T05:13:26;11.33;;;8.83;;
14143;SDS011;7152;48.348;10.980;2023-07-22T05:15:51;10.60;;;8.13;;
14143;SDS011;7152;48.348;10.980;2023-07-22T05:18:17;11.47;;;9.20;;
14143;SDS011;7152;48.348;10.980;2023-07-22T05:20:43;9.93;;;8.93;;
14143;SDS011;7152;48.348;10.980;2023-07-22T05:23:09;11.73;;;8.63;;
14143;SDS011;7152;48.348;10.980;2023-07-22T05:25:34;9.70;;;8.80;;
14143;SDS011;7152;48.348;10.980;2023-07-22T05:28:00;8.80;;;7.87;;
14143;SDS011;7152;48.348;10.980;2023-07-22T05:30:26;9.20;;;8.40;;
14143;SDS011;7152;48.348;10.980;2023-07-22T05:32:52;8.57;;;7.37;;
14143;SDS011;7152;48.348;10.980;2023-07-22T05:35:18;11.10;;;7.60;;
14143;SDS011;7152;48.348;10.980;2023-07-22T05:37:44;8.23;;;7.47;;
14143;SDS011;7152;48.348;10.980;2023-07-22T05:40:10;8.63;;;7.70;;
14143;SDS011;7152;48.348;10.980;2023-07-22T05:42:36;8.87;;;6.97;;
14143;SDS011;7152;48.348;10.980;2023-07-22T05:45:02;8.90;;;7.17;;
14143;SDS011;7152;48.348;10.980;2023-07-22T05:47:29;8.50;;;7.00;;
14143;SDS011;7152;48.348;10.980;2023-07-22T05:49:55;10.70;;;7.10;;
14143;SDS011;7152;48.348;10.980;2023-07-22T05:52:21;7.53;;;6.73;;
14143;SDS011;7152;48.348;10.980;2023-07-22T05:54:47;6.90;;;6.20;;
14143;SDS011;7152;48.348;10.980;2023-07-22T05:57:13;8.97;;;6.13;;
14143;SDS011;7152;48.348;10.980;2023-07-22T05:59:39;7.90;;;6.50;;
14143;SDS011;7152;48.348;10.980;2023-07-22T06:02:05;6.70;;;5.77;;
14143;SDS011;7152;48.348;10.980;2023-07-22T06:04:33;5.60;;;5.10;;
14143;SDS011;7152;48.348;10.980;2023-07-22T06:06:59;5.50;;;4.37;;
14143;SDS011;7152;48.348;10.980;2023-07-22T06:09:24;5.60;;;4.23;;
14143;SDS011;7152;48.348;10.980;2023-07-22T06:11:50;5.43;;;4.93;;
14143;SDS011;7152;48.348;10.980;2023-07-22T06:14:16;5.23;;;4.73;;
14143;SDS011;7152;48.348;10.980;2023-07-22T06:16:42;6.20;;;4.33;;
14143;SDS011;7152;48.348;10.980;2023-07-22T06:19:07;5.43;;;4.70;;
14143;SDS011;7152;48.348;10.980;2023-07-22T06:21:33;5.47;;;4.90;;
14143;SDS011;7152;48.348;10.980;2023-07-22T06:23:59;5.93;;;4.50;;
14143;SDS011;7152;48.348;10.980;2023-07-22T06:26:25;5.43;;;4.13;;
14143;SDS011;7152;48.348;10.980;2023-07-22T06:28:51;5.70;;;4.10;;
14143;SDS011;7152;48.348;10.980;2023-07-22T06:31:16;3.73;;;3.37;;
14143;SDS011;7152;48.348;10.980;2023-07-22T06:33:43;7.03;;;3.73;;
14143;SDS011;7152;48.348;10.980;2023-07-22T06:36:09;4.50;;;3.73;;
14143;SDS011;7152;48.348;10.980;2023-07-22T06:38:36;3.83;;;3.27;;
14143;SDS011;7152;48.348;10.980;2023-07-22T06:41:02;4.47;;;3.40;;
14143;SDS011;7152;48.348;10.980;2023-07-22T06:43:28;3.90;;;3.60;;
14143;SDS011;7152;48.348;10.980;2023-07-22T06:45:54;4.87;;;3.13;;
14143;SDS011;7152;48.348;10.980;2023-07-22T06:48:19;4.20;;;2.67;;
14143;SDS011;7152;48.348;10.980;2023-07-22T06:50:48;4.10;;;3.20;;
14143;SDS011;7152;48.348;10.980;2023-07-22T06:53:14;4.70;;;3.20;;
14143;SDS011;7152;48.348;10.980;2023-07-22T06:55:48;3.97;;;2.83;;
14143;SDS011;7152;48.348;10.980;2023-07-22T06:58:15;4.43;;;3.10;;
14143;SDS011;7152;48.348;10.980;2023-07-22T07:00:40;5.10;;;2.60;;
14143;SDS011;7152;48.348;10.980;2023-07-22T07:03:06;4.97;;;2.97;;
14143;SDS011;7152;48.348;10.980;2023-07-22T07:05:32;2.50;;;2.30;;
14143;SDS011;7152;48.348;10.980;2023-07-22T07:07:59;3.90;;;2.40;;
14143;SDS011;7152;48.348;10.980;2023-07-22T07:10:25;4.00;;;2.23;;
14143;SDS011;7152;48.348;10.980;2023-07-22T07:12:51;2.23;;;2.03;;
14143;SDS011;7152;48.348;10.980;2023-07-22T07:15:17;3.30;;;2.57;;
14143;SDS011;7152;48.348;10.980;2023-07-22T07:17:43;3.40;;;2.27;;
14143;SDS011;7152;48.348;10.980;2023-07-22T07:20:09;3.57;;;2.23;;
14143;SDS011;7152;48.348;10.980;2023-07-22T07:22:35;2.67;;;2.47;;
14143;SDS011;7152;48.348;10.980;2023-07-22T07:25:01;2.67;;;2.20;;
14143;SDS011;7152;48.348;10.980;2023-07-22T07:27:27;2.90;;;1.90;;
14143;SDS011;7152;48.348;10.980;2023-07-22T07:29:53;3.43;;;2.17;;
14143;SDS011;7152;48.348;10.980;2023-07-22T07:32:19;3.87;;;2.30;;
14143;SDS011;7152;48.348;10.980;2023-07-22T07:34:45;3.20;;;2.00;;
14143;SDS011;7152;48.348;10.980;2023-07-22T07:37:11;2.70;;;2.20;;
14143;SDS011;7152;48.348;10.980;2023-07-22T07:39:36;2.70;;;2.03;;
14143;SDS011;7152;48.348;10.980;2023-07-22T07:42:02;2.20;;;1.70;;
14143;SDS011;7152;48.348;10.980;2023-07-22T07:44:28;2.10;;;1.90;;
14143;SDS011;7152;48.348;10.980;2023-07-22T07:46:55;2.00;;;1.60;;
14143;SDS011;7152;48.348;10.980;2023-07-22T07:49:21;2.77;;;1.83;;
14143;SDS011;7152;48.348;10.980;2023-07-22T07:51:47;2.37;;;1.73;;
14143;SDS011;7152;48.348;10.980;2023-07-22T07:54:13;3.17;;;1.77;;
14143;SDS011;7152;48.348;10.980;2023-07-22T07:56:40;2.23;;;1.53;;
14143;SDS011;7152;48.348;10.980;2023-07-22T07:59:06;1.80;;;1.50;;
14143;SDS011;7152;48.348;10.980;2023-07-22T08:01:34;3.13;;;1.77;;
14143;SDS011;7152;48.348;10.980;2023-07-22T08:04:00;3.43;;;2.00;;
14143;SDS011;7152;48.348;10.980;2023-07-22T08:06:26;2.80;;;1.50;;
14143;SDS011;7152;48.348;10.980;2023-07-22T08:08:52;2.93;;;1.87;;
14143;SDS011;7152;48.348;10.980;2023-07-22T08:11:18;3.13;;;1.83;;
14143;SDS011;7152;48.348;10.980;2023-07-22T08:13:44;1.80;;;1.70;;
14143;SDS011;7152;48.348;10.980;2023-07-22T08:16:11;1.90;;;1.80;;
14143;SDS011;7152;48.348;10.980;2023-07-22T08:18:38;2.83;;;1.53;;
14143;SDS011;7152;48.348;10.980;2023-07-22T08:21:05;1.57;;;1.47;;
14143;SDS011;7152;48.348;10.980;2023-07-22T08:23:32;1.90;;;1.63;;
14143;SDS011;7152;48.348;10.980;2023-07-22T08:25:59;3.70;;;1.57;;
14143;SDS011;7152;48.348;10.980;2023-07-22T08:28:25;1.97;;;1.40;;
14143;SDS011;7152;48.348;10.980;2023-07-22T08:30:53;1.97;;;1.50;;
14143;SDS011;7152;48.348;10.980;2023-07-22T08:33:21;1.93;;;1.60;;
14143;SDS011;7152;48.348;10.980;2023-07-22T08:35:48;1.37;;;1.27;;
14143;SDS011;7152;48.348;10.980;2023-07-22T08:38:14;1.53;;;1.30;;
14143;SDS011;7152;48.348;10.980;2023-07-22T08:40:40;1.90;;;1.30;;
14143;SDS011;7152;48.348;10.980;2023-07-22T08:43:07;1.83;;;1.20;;
14143;SDS011;7152;48.348;10.980;2023-07-22T08:45:34;1.50;;;1.30;;
14143;SDS011;7152;48.348;10.980;2023-07-22T08:48:02;1.90;;;1.40;;
14143;SDS011;7152;48.348;10.980;2023-07-22T08:50:34;1.93;;;1.40;;
14143;SDS011;7152;48.348;10.980;2023-07-22T08:53:12;2.17;;;1.20;;
14143;SDS011;7152;48.348;10.980;2023-07-22T08:55:38;2.00;;;1.67;;
14143;SDS011;7152;48.348;10.980;2023-07-22T08:58:08;1.60;;;1.50;;
14143;SDS011;7152;48.348;10.980;2023-07-22T09:00:35;1.97;;;1.40;;
14143;SDS011;7152;48.348;10.980;2023-07-22T09:03:01;1.40;;;1.17;;
14143;SDS011;7152;48.348;10.980;2023-07-22T09:05:28;2.50;;;1.17;;
14143;SDS011;7152;48.348;10.980;2023-07-22T09:07:56;1.20;;;1.10;;
14143;SDS011;7152;48.348;10.980;2023-07-22T09:10:22;2.50;;;1.70;;
14143;SDS011;7152;48.348;10.980;2023-07-22T09:12:50;2.37;;;1.30;;
14143;SDS011;7152;48.348;10.980;2023-07-22T09:15:16;1.73;;;1.50;;
14143;SDS011;7152;48.348;10.980;2023-07-22T09:17:43;1.50;;;1.40;;
14143;SDS011;7152;48.348;10.980;2023-07-22T09:20:11;1.60;;;1.40;;
14143;SDS011;7152;48.348;10.980;2023-07-22T09:22:45;1.83;;;1.20;;
14143;SDS011;7152;48.348;10.980;2023-07-22T09:25:16;1.57;;;1.33;;
14143;SDS011;7152;48.348;10.980;2023-07-22T09:27:47;2.20;;;1.47;;
14143;SDS011;7152;48.348;10.980;2023-07-22T09:30:21;2.57;;;1.40;;
14143;SDS011;7152;48.348;10.980;2023-07-22T09:32:51;1.50;;;1.30;;
14143;SDS011;7152;48.348;10.980;2023-07-22T09:35:18;1.97;;;1.13;;
14143;SDS011;7152;48.348;10.980;2023-07-22T09:37:44;1.27;;;1.00;;
14143;SDS011;7152;48.348;10.980;2023-07-22T09:42:48;1.30;;;1.20;;
14143;SDS011;7152;48.348;10.980;2023-07-22T09:45:18;1.53;;;1.20;;
14143;SDS011;7152;48.348;10.980;2023-07-22T09:47:47;2.87;;;1.50;;
14143;SDS011;7152;48.348;10.980;2023-07-22T09:50:18;1.95;;;1.20;;
14143;SDS011;7152;48.348;10.980;2023-07-22T09:52:51;2.28;;;1.20;;
14143;SDS011;7152;48.348;10.980;2023-07-22T09:55:22;1.70;;;1.60;;
14143;SDS011;7152;48.348;10.980;2023-07-22T10:00:23;3.35;;;1.45;;
14143;SDS011;7152;48.348;10.980;2023-07-22T10:02:51;1.50;;;1.20;;
14143;SDS011;7152;48.348;10.980;2023-07-22T10:05:18;2.23;;;1.40;;
14143;SDS011;7152;48.348;10.980;2023-07-22T10:07:48;1.20;;;1.10;;
14143;SDS011;7152;48.348;10.980;2023-07-22T10:10:17;1.98;;;1.75;;
14143;SDS011;7152;48.348;10.980;2023-07-22T10:12:48;1.98;;;1.83;;
14143;SDS011;7152;48.348;10.980;2023-07-22T10:15:14;2.05;;;1.20;;
14143;SDS011;7152;48.348;10.980;2023-07-22T10:17:43;1.90;;;1.20;;
14143;SDS011;7152;48.348;10.980;2023-07-22T10:20:10;1.57;;;1.27;;
14143;SDS011;7152;48.348;10.980;2023-07-22T10:22:41;2.60;;;1.40;;
14143;SDS011;7152;48.348;10.980;2023-07-22T10:25:10;1.40;;;1.30;;
14143;SDS011;7152;48.348;10.980;2023-07-22T10:27:46;1.60;;;1.50;;
14143;SDS011;7152;48.348;10.980;2023-07-22T10:30:14;2.00;;;1.33;;
14143;SDS011;7152;48.348;10.980;2023-07-22T10:32:42;2.20;;;1.60;;
14143;SDS011;7152;48.348;10.980;2023-07-22T10:35:16;1.50;;;1.33;;
14143;SDS011;7152;48.348;10.980;2023-07-22T10:37:54;1.63;;;1.17;;
14143;SDS011;7152;48.348;10.980;2023-07-22T10:42:53;1.33;;;1.23;;
14143;SDS011;7152;48.348;10.980;2023-07-22T10:45:24;1.30;;;1.20;;
14143;SDS011;7152;48.348;10.980;2023-07-22T10:48:05;1.60;;;1.27;;
14143;SDS011;7152;48.348;10.980;2023-07-22T10:50:48;2.03;;;1.20;;
14143;SDS011;7152;48.348;10.980;2023-07-22T11:04:09;1.25;;;1.15;;
14143;SDS011;7152;48.348;10.980;2023-07-22T11:06:51;1.25;;;1.15;;
14143;SDS011;7152;48.348;10.980;2023-07-22T11:11:56;1.20;;;1.08;;
14143;SDS011;7152;48.348;10.980;2023-07-22T11:14:24;2.05;;;1.45;;
14143;SDS011;7152;48.348;10.980;2023-07-22T11:16:51;2.55;;;1.05;;
14143;SDS011;7152;48.348;10.980;2023-07-22T11:19:19;2.05;;;1.25;;
14143;SDS011;7152;48.348;10.980;2023-07-22T11:21:46;1.10;;;1.00;;
14143;SDS011;7152;48.348;10.980;2023-07-22T11:24:15;1.80;;;1.42;;
14143;SDS011;7152;48.348;10.980;2023-07-22T11:26:42;2.35;;;1.52;;
14143;SDS011;7152;48.348;10.980;2023-07-22T11:29:08;1.20;;;1.10;;
14143;SDS011;7152;48.348;10.980;2023-07-22T11:31:35;1.38;;;1.10;;
14143;SDS011;7152;48.348;10.980;2023-07-22T11:34:12;2.13;;;1.35;;
14143;SDS011;7152;48.348;10.980;2023-07-22T11:36:40;1.60;;;1.35;;
14143;SDS011;7152;48.348;10.980;2023-07-22T11:39:13;1.60;;;1.20;;
14143;SDS011;7152;48.348;10.980;2023-07-22T11:41:46;1.00;;;0.98;;
14143;SDS011;7152;48.348;10.980;2023-07-22T11:44:15;1.88;;;1.10;;
14143;SDS011;7152;48.348;10.980;2023-07-22T11:46:51;1.23;;;1.13;;
14143;SDS011;7152;48.348;10.980;2023-07-22T11:51:57;1.52;;;0.98;;
14143;SDS011;7152;48.348;10.980;2023-07-22T11:54:40;1.92;;;1.10;;
14143;SDS011;7152;48.348;10.980;2023-07-22T11:57:19;1.00;;;0.80;;
14143;SDS011;7152;48.348;10.980;2023-07-22T11:59:50;2.22;;;1.10;;
14143;SDS011;7152;48.348;10.980;2023-07-22T12:02:21;1.23;;;1.10;;
14143;SDS011;7152;48.348;10.980;2023-07-22T12:07:31;1.35;;;1.25;;
14143;SDS011;7152;48.348;10.980;2023-07-22T12:09:59;1.40;;;1.30;;
14143;SDS011;7152;48.348;10.980;2023-07-22T12:15:02;1.00;;;0.90;;
14143;SDS011;7152;48.348;10.980;2023-07-22T12:17:29;1.88;;;1.38;;
14143;SDS011;7152;48.348;10.980;2023-07-22T12:20:08;1.40;;;1.15;;
14143;SDS011;7152;48.348;10.980;2023-07-22T12:22:34;1.85;;;1.30;;
14143;SDS011;7152;48.348;10.980;2023-07-22T12:25:00;2.88;;;1.25;;
14143;SDS011;7152;48.348;10.980;2023-07-22T12:27:26;3.20;;;1.50;;
14143;SDS011;7152;48.348;10.980;2023-07-22T12:29:51;1.70;;;1.23;;
14143;SDS011;7152;48.348;10.980;2023-07-22T12:32:17;1.80;;;1.05;;
14143;SDS011;7152;48.348;10.980;2023-07-22T12:34:43;1.83;;;1.33;;
14143;SDS011;7152;48.348;10.980;2023-07-22T12:37:09;1.20;;;1.10;;
14143;SDS011;7152;48.348;10.980;2023-07-22T12:39:35;1.50;;;1.25;;
14143;SDS011;7152;48.348;10.980;2023-07-22T12:42:00;1.58;;;1.38;;
14143;SDS011;7152;48.348;10.980;2023-07-22T12:44:26;2.47;;;1.50;;
14143;SDS011;7152;48.348;10.980;2023-07-22T12:46:52;1.50;;;1.25;;
14143;SDS011;7152;48.348;10.980;2023-07-22T12:49:18;1.52;;;1.27;;
14143;SDS011;7152;48.348;10.980;2023-07-22T12:51:44;2.33;;;1.48;;
14143;SDS011;7152;48.348;10.980;2023-07-22T12:54:10;1.90;;;1.13;;
14143;SDS011;7152;48.348;10.980;2023-07-22T12:56:36;1.20;;;1.10;;
14143;SDS011;7152;48.348;10.980;2023-07-22T12:59:02;1.85;;;1.52;;
14143;SDS011;7152;48.348;10.980;2023-07-22T13:01:28;13.13;;;2.95;;
14143;SDS011;7152;48.348;10.980;2023-07-22T13:03:53;4.70;;;1.88;;
14143;SDS011;7152;48.348;10.980;2023-07-22T13:06:19;5.20;;;1.60;;
14143;SDS011;7152;48.348;10.980;2023-07-22T13:08:45;3.28;;;1.45;;
14143;SDS011;7152;48.348;10.980;2023-07-22T13:11:11;17.42;;;3.05;;
14143;SDS011;7152;48.348;10.980;2023-07-22T13:13:37;3.42;;;1.70;;
14143;SDS011;7152;48.348;10.980;2023-07-22T13:16:03;4.55;;;1.92;;
14143;SDS011;7152;48.348;10.980;2023-07-22T13:18:28;1.42;;;1.33;;
14143;SDS011;7152;48.348;10.980;2023-07-22T13:20:54;1.70;;;1.50;;
14143;SDS011;7152;48.348;10.980;2023-07-22T13:23:20;1.50;;;1.40;;
14143;SDS011;7152;48.348;10.980;2023-07-22T13:25:46;1.88;;;1.60;;
14143;SDS011;7152;48.348;10.980;2023-07-22T13:28:12;1.70;;;1.30;;
14143;SDS011;7152;48.348;10.980;2023-07-22T13:30:38;1.42;;;1.33;;
14143;SDS011;7152;48.348;10.980;2023-07-22T13:33:04;1.63;;;1.50;;
14143;SDS011;7152;48.348;10.980;2023-07-22T13:35:29;1.98;;;1.70;;
14143;SDS011;7152;48.348;10.980;2023-07-22T13:37:55;1.80;;;1.45;;
14143;SDS011;7152;48.348;10.980;2023-07-22T13:40:21;1.80;;;1.70;;
14143;SDS011;7152;48.348;10.980;2023-07-22T13:42:47;1.98;;;1.80;;
14143;SDS011;7152;48.348;10.980;2023-07-22T13:45:13;1.75;;;1.63;;
14143;SDS011;7152;48.348;10.980;2023-07-22T13:47:38;2.22;;;1.83;;
14143;SDS011;7152;48.348;10.980;2023-07-22T13:50:04;2.15;;;1.58;;
14143;SDS011;7152;48.348;10.980;2023-07-22T13:52:30;1.67;;;1.58;;
14143;SDS011;7152;48.348;10.980;2023-07-22T13:54:56;2.08;;;1.50;;
14143;SDS011;7152;48.348;10.980;2023-07-22T13:57:22;1.73;;;1.63;;
14143;SDS011;7152;48.348;10.980;2023-07-22T13:59:48;1.75;;;1.65;;
14143;SDS011;7152;48.348;10.980;2023-07-22T14:02:14;1.95;;;1.52;;
14143;SDS011;7152;48.348;10.980;2023-07-22T14:04:39;2.40;;;1.73;;
14143;SDS011;7152;48.348;10.980;2023-07-22T14:07:05;2.00;;;1.80;;
14143;SDS011;7152;48.348;10.980;2023-07-22T14:09:31;2.20;;;1.70;;
14143;SDS011;7152;48.348;10.980;2023-07-22T14:11:57;1.98;;;1.83;;
14143;SDS011;7152;48.348;10.980;2023-07-22T14:14:23;1.90;;;1.80;;
14143;SDS011;7152;48.348;10.980;2023-07-22T14:16:56;2.03;;;1.83;;
14143;SDS011;7152;48.348;10.980;2023-07-22T14:19:23;1.90;;;1.80;;
14143;SDS011;7152;48.348;10.980;2023-07-22T14:21:49;2.20;;;1.70;;
14143;SDS011;7152;48.348;10.980;2023-07-22T14:24:15;1.85;;;1.67;;
14143;SDS011;7152;48.348;10.980;2023-07-22T14:26:41;2.03;;;1.80;;
14143;SDS011;7152;48.348;10.980;2023-07-22T14:29:06;2.33;;;2.13;;
14143;SDS011;7152;48.348;10.980;2023-07-22T14:31:32;2.10;;;1.90;;
14143;SDS011;7152;48.348;10.980;2023-07-22T14:33:59;2.05;;;1.80;;
14143;SDS011;7152;48.348;10.980;2023-07-22T14:36:24;1.92;;;1.77;;
14143;SDS011;7152;48.348;10.980;2023-07-22T14:38:50;1.88;;;1.73;;
14143;SDS011;7152;48.348;10.980;2023-07-22T14:41:16;1.77;;;1.67;;
14143;SDS011;7152;48.348;10.980;2023-07-22T14:43:42;1.98;;;1.73;;
14143;SDS011;7152;48.348;10.980;2023-07-22T14:46:08;2.10;;;1.90;;
14143;SDS011;7152;48.348;10.980;2023-07-22T14:48:34;1.65;;;1.48;;
14143;SDS011;7152;48.348;10.980;2023-07-22T14:51:00;2.08;;;1.85;;
14143;SDS011;7152;48.348;10.980;2023-07-22T14:53:26;2.10;;;1.40;;
14143;SDS011;7152;48.348;10.980;2023-07-22T14:55:51;1.63;;;1.52;;
14143;SDS011;7152;48.348;10.980;2023-07-22T14:58:17;1.88;;;1.55;;
14143;SDS011;7152;48.348;10.980;2023-07-22T15:00:43;3.97;;;1.98;;
14143;SDS011;7152;48.348;10.980;2023-07-22T15:03:09;2.20;;;1.65;;
14143;SDS011;7152;48.348;10.980;2023-07-22T15:05:35;2.17;;;1.90;;
14143;SDS011;7152;48.348;10.980;2023-07-22T15:08:01;3.47;;;2.05;;
14143;SDS011;7152;48.348;10.980;2023-07-22T15:10:27;2.10;;;1.90;;